createdAt,value
2022-11-23T00:04:42.507Z,75799.09
2022-11-23T00:14:45.914Z,75799.09
2022-11-23T00:24:53.537Z,75774.81
2022-11-23T00:34:58.128Z,75782.91
2022-11-23T00:45:06.745Z,75782.91
2022-11-23T00:55:10.354Z,75786.94
2022-11-23T01:05:15.553Z,75782.91
2022-11-23T01:15:17.839Z,75778.84
2022-11-23T01:25:22.495Z,75774.81
2022-11-23T01:35:27.109Z,75786.94
2022-11-23T01:45:39.373Z,75778.84
2022-11-23T01:55:42.945Z,75778.84
2022-11-23T02:05:54.598Z,75786.94
2022-11-23T02:16:00.453Z,75791.00
2022-11-23T02:26:11.795Z,75807.19
2022-11-23T02:36:40.682Z,75827.44
2022-11-23T02:46:45.499Z,75855.75
2022-11-23T02:56:51.329Z,75839.56
2022-11-23T03:06:56.854Z,75835.53
2022-11-23T03:17:05.333Z,75841.59
2022-11-23T03:27:12.865Z,75831.47
2022-11-23T03:37:16.141Z,75823.38
2022-11-23T03:47:26.826Z,75839.56
2022-11-23T03:57:29.323Z,75831.47
2022-11-23T04:07:31.794Z,75839.56
2022-11-23T04:17:41.588Z,75861.81
2022-11-23T04:27:47.047Z,75839.56
2022-11-23T04:37:49.917Z,75841.59
2022-11-23T04:47:55.603Z,75863.84
2022-11-23T04:58:02.704Z,75871.94
2022-11-23T05:08:08.515Z,75900.28
2022-11-23T05:18:25.162Z,75912.44
2022-11-23T05:28:40.023Z,75928.63
2022-11-23T05:38:46.715Z,75914.44
2022-11-23T05:49:03.016Z,75912.44
2022-11-23T05:59:11.736Z,75928.63
2022-11-23T06:09:16.314Z,75948.84
2022-11-23T06:19:23.998Z,75926.59
2022-11-23T06:29:31.473Z,75934.69
2022-11-23T06:39:35.906Z,75938.75
2022-11-23T06:49:42.726Z,75936.72
2022-11-23T07:00:01.258Z,75950.88
2022-11-23T07:10:09.957Z,75975.16
2022-11-23T07:20:22.468Z,75993.38
2022-11-23T07:30:31.893Z,75979.22
2022-11-23T07:40:36.994Z,75973.16
2022-11-23T07:50:47.324Z,75997.44
2022-11-23T08:00:53.581Z,75997.44
2022-11-23T08:10:58.445Z,76005.53
2022-11-23T08:21:03.653Z,76029.81
2022-11-23T08:31:09.183Z,76027.78
2022-11-23T08:41:21.255Z,76011.59
2022-11-23T08:51:25.987Z,76017.66
2022-11-23T09:01:30.492Z,76019.69
2022-11-23T09:11:35.307Z,76029.81
2022-11-23T09:21:39.405Z,76046.00
2022-11-23T09:31:41.546Z,76025.75
2022-11-23T09:41:46.490Z,76005.53
2022-11-23T09:51:51.255Z,75997.44
2022-11-23T10:01:59.088Z,75989.34
2022-11-23T10:12:18.068Z,75902.31
2022-11-23T10:22:29.366Z,75969.09
2022-11-23T10:32:38.711Z,75999.47
2022-11-23T10:42:50.560Z,75991.34
2022-11-23T10:53:20.366Z,75995.41
2022-11-23T11:03:26.128Z,75977.19
2022-11-23T11:13:38.448Z,75948.84
2022-11-23T11:23:40.958Z,75930.63
2022-11-23T11:33:57.758Z,75936.72
2022-11-23T11:44:10.050Z,75908.38
2022-11-23T11:54:32.075Z,75948.84
2022-11-23T12:04:45.265Z,75950.88
2022-11-23T12:14:47.484Z,75956.94
2022-11-23T12:24:55.857Z,75940.75
2022-11-23T12:35:27.601Z,75961.00
2022-11-23T12:45:51.478Z,75928.63
2022-11-23T12:56:05.845Z,75914.44
2022-11-23T13:06:18.536Z,75904.34
2022-11-23T13:17:00.399Z,75916.47
2022-11-23T13:27:14.290Z,75928.63
2022-11-23T13:37:24.317Z,75946.84
2022-11-23T13:47:30.139Z,75944.81
2022-11-23T13:57:34.928Z,75928.63
2022-11-23T14:07:43.506Z,75936.72
2022-11-23T14:18:11.907Z,75969.09
2022-11-23T14:28:47.889Z,75993.38
2022-11-23T14:39:22.292Z,75997.44
2022-11-23T14:49:27.249Z,76037.91
2022-11-23T14:59:35.885Z,76031.84
2022-11-23T15:09:52.181Z,76021.72
2022-11-23T15:20:01.194Z,76025.75
2022-11-23T15:30:38.737Z,76019.69
2022-11-23T15:40:49.031Z,76021.72
2022-11-23T15:50:54.010Z,76037.91
2022-11-23T16:01:16.373Z,76039.94
2022-11-23T16:11:31.804Z,76058.16
2022-11-23T16:21:34.003Z,76084.47
2022-11-23T16:31:40.296Z,76088.50
2022-11-23T16:41:45.739Z,76076.38
2022-11-23T16:51:56.754Z,76066.25
2022-11-23T17:02:05.042Z,76076.38
2022-11-23T17:12:15.074Z,76090.53
2022-11-23T17:22:20.579Z,76090.53
2022-11-23T17:32:25.270Z,76090.53
2022-11-23T17:42:29.662Z,76100.66
2022-11-23T17:52:34.182Z,76112.78
2022-11-23T18:02:37.793Z,76149.22
2022-11-23T18:12:44.729Z,76145.19
2022-11-23T18:22:46.851Z,76147.22
2022-11-23T18:32:51.429Z,76149.22
2022-11-23T18:42:58.802Z,76114.81
2022-11-23T18:53:00.868Z,76143.16
2022-11-23T19:03:08.697Z,76151.25
2022-11-23T19:13:12.161Z,76143.16
2022-11-23T19:23:19.352Z,76151.25
2022-11-23T19:33:21.421Z,76175.53
2022-11-23T19:43:26.081Z,76185.66
2022-11-23T19:53:31.126Z,76195.78
2022-11-23T20:03:37.439Z,76175.53
2022-11-23T20:13:46.674Z,76189.72
2022-11-23T20:23:50.826Z,76232.22
2022-11-23T20:33:54.069Z,76230.19
2022-11-23T20:44:01.551Z,76254.47
2022-11-23T20:54:05.433Z,76280.78
2022-11-23T21:04:10.006Z,76252.47
2022-11-23T21:14:24.709Z,76288.88
2022-11-23T21:24:29.867Z,76248.41
2022-11-23T21:34:35.371Z,76244.34
2022-11-23T21:44:40.914Z,76260.56
2022-11-23T21:54:49.166Z,76272.69
2022-11-23T22:04:53.913Z,76236.25
2022-11-23T22:14:56.657Z,76262.56
2022-11-23T22:24:59.022Z,76288.88
2022-11-23T22:35:03.371Z,76272.69
2022-11-23T22:45:05.917Z,76299.00
2022-11-23T22:55:12.354Z,76284.84
2022-11-23T23:05:16.726Z,76284.84
2022-11-23T23:15:24.248Z,76284.84
2022-11-23T23:25:32.237Z,76280.78
2022-11-23T23:35:38.150Z,76296.97
2022-11-23T23:45:42.856Z,76288.88
2022-11-23T23:55:55.680Z,76286.88
